Time;durP1;ratioP1;P1;durP2;ratioP2;P2;SDS_P1;SDS_P2;PMS_P1;PMS_P2;Temp;Humidity;BMP_temperature;BMP_pressure;BME280_temperature;BME280_humidity;BME280_pressure;Samples;Min_cycle;Max_cycle;Signal;HPM_P1;HPM_P2
2022/01/24 00:02:18;;;;;;;4.68;2.83;;;;;;;;;;5007505;28;20069;-35
2022/01/24 00:04:44;;;;;;;4.25;2.60;;;;;;;;;;5007993;28;20045;-37
2022/01/24 00:07:09;;;;;;;4.82;2.78;;;;;;;;;;5007778;28;20026;-34
2022/01/24 00:09:37;;;;;;;4.25;2.95;;;;;;;;;;5007826;28;20400;-34
2022/01/24 00:12:15;;;;;;;4.03;3.00;;;;;;;;;;5007946;28;20820;-36
2022/01/24 00:17:50;;;;;;;3.38;2.53;;;;;;;;;;4995147;28;20046;-38
2022/01/24 00:28:13;;;;;;;4.65;3.30;;;;;;;;;;5007630;28;20072;-36
2022/01/24 00:30:39;;;;;;;4.18;2.92;;;;;;;;;;5007575;28;20053;-36
2022/01/24 00:33:04;;;;;;;4.00;2.80;;;;;;;;;;5006981;28;20076;-38
2022/01/24 00:35:29;;;;;;;3.85;2.85;;;;;;;;;;5007371;28;20033;-36
2022/01/24 00:37:59;;;;;;;3.30;2.38;;;;;;;;;;5007433;28;20065;-36
2022/01/24 00:40:26;;;;;;;4.28;3.10;;;;;;;;;;5007690;28;20041;-35
2022/01/24 00:42:59;;;;;;;3.33;2.88;;;;;;;;;;5006744;28;20038;-33
2022/01/24 00:56:05;;;;;;;3.97;2.70;;;;;;;;;;5005677;28;20042;-39
2022/01/24 00:58:31;;;;;;;5.65;2.92;;;;;;;;;;5006695;28;20022;-35
2022/01/24 01:00:56;;;;;;;5.50;2.65;;;;;;;;;;5007111;28;20029;-38
2022/01/24 01:03:24;;;;;;;4.25;2.97;;;;;;;;;;5006402;28;20467;-36
2022/01/24 01:19:19;;;;;;;3.42;2.70;;;;;;;;;;5006270;28;20470;-35
2022/01/24 01:21:45;;;;;;;3.90;2.80;;;;;;;;;;5006782;28;20034;-37
2022/01/24 01:24:11;;;;;;;4.07;2.78;;;;;;;;;;5006904;28;20052;-35
2022/01/24 01:26:42;;;;;;;3.05;2.33;;;;;;;;;;5006073;28;20096;-36
2022/01/24 01:29:15;;;;;;;3.50;2.38;;;;;;;;;;4994647;28;20572;-37
2022/01/24 01:31:50;;;;;;;5.03;3.17;;;;;;;;;;4986964;28;20567;-36
2022/01/24 01:37:21;;;;;;;3.30;2.38;;;;;;;;;;5006275;28;20030;-30
2022/01/24 01:40:08;;;;;;;3.70;2.42;;;;;;;;;;5006292;28;20041;-36
2022/01/24 01:56:07;;;;;;;4.00;2.42;;;;;;;;;;4986622;28;20548;-38
2022/01/24 01:58:33;;;;;;;3.58;2.17;;;;;;;;;;4986412;28;20026;-37
2022/01/24 02:00:59;;;;;;;3.17;2.40;;;;;;;;;;4986496;28;20036;-30
2022/01/24 02:03:25;;;;;;;3.38;2.40;;;;;;;;;;4986202;28;20038;-35
2022/01/24 02:05:51;;;;;;;2.70;2.03;;;;;;;;;;4986433;28;20518;-36
2022/01/24 02:08:17;;;;;;;3.30;2.38;;;;;;;;;;4986311;28;20469;-34
2022/01/24 02:10:43;;;;;;;4.65;2.38;;;;;;;;;;4986001;28;20034;-36
2022/01/24 02:13:10;;;;;;;3.08;2.42;;;;;;;;;;4985974;28;20117;-37
2022/01/24 02:18:13;;;;;;;3.17;2.33;;;;;;;;;;4986242;28;20068;-37
2022/01/24 02:25:52;;;;;;;2.67;2.22;;;;;;;;;;4985581;28;20034;-37
2022/01/24 02:28:20;;;;;;;3.15;2.38;;;;;;;;;;4985590;28;20030;-33
2022/01/24 02:33:17;;;;;;;2.63;2.08;;;;;;;;;;4985525;28;20074;-33
2022/01/24 02:35:43;;;;;;;3.17;2.55;;;;;;;;;;4985604;28;20478;-36
2022/01/24 02:38:20;;;;;;;3.33;2.45;;;;;;;;;;4985856;28;20105;-35
2022/01/24 02:46:00;;;;;;;3.15;2.28;;;;;;;;;;4985800;28;20557;-34
2022/01/24 02:48:59;;;;;;;3.28;2.22;;;;;;;;;;4985444;28;20095;-34
2022/01/24 02:51:46;;;;;;;3.10;2.20;;;;;;;;;;4986219;28;20042;-37
2022/01/24 02:54:20;;;;;;;2.67;2.10;;;;;;;;;;4985308;28;20118;-35
2022/01/24 02:56:46;;;;;;;2.70;2.20;;;;;;;;;;4985440;28;20118;-36
2022/01/24 02:59:11;;;;;;;3.92;2.30;;;;;;;;;;4985526;28;20109;-39
2022/01/24 03:01:40;;;;;;;2.72;2.20;;;;;;;;;;4985523;28;20448;-36
2022/01/24 03:04:06;;;;;;;3.45;2.40;;;;;;;;;;4985254;28;20069;-38
2022/01/24 03:06:31;;;;;;;2.83;2.22;;;;;;;;;;4985223;28;20053;-33
2022/01/24 03:08:57;;;;;;;3.13;2.00;;;;;;;;;;4985582;28;20026;-37
2022/01/24 03:11:27;;;;;;;2.92;2.03;;;;;;;;;;4985514;28;20035;-38
2022/01/24 03:13:53;;;;;;;3.00;2.05;;;;;;;;;;4985527;28;20033;-37
2022/01/24 03:16:19;;;;;;;2.75;2.08;;;;;;;;;;4985513;28;20031;-35
2022/01/24 03:18:44;;;;;;;3.00;2.30;;;;;;;;;;4985620;28;20452;-39
2022/01/24 03:21:09;;;;;;;4.10;2.03;;;;;;;;;;4985325;28;20034;-37
2022/01/24 03:23:35;;;;;;;2.75;2.20;;;;;;;;;;4985170;28;20030;-37
2022/01/24 03:26:01;;;;;;;3.13;2.45;;;;;;;;;;4985264;28;20073;-32
2022/01/24 03:28:26;;;;;;;2.88;1.80;;;;;;;;;;4985145;28;20421;-36
2022/01/24 03:30:52;;;;;;;2.80;2.03;;;;;;;;;;4985193;28;20031;-35
2022/01/24 03:33:17;;;;;;;2.67;2.05;;;;;;;;;;4984940;28;20070;-34
2022/01/24 03:35:43;;;;;;;2.75;1.90;;;;;;;;;;4986175;28;20026;-37
2022/01/24 03:38:09;;;;;;;2.15;1.67;;;;;;;;;;4989029;28;20038;-34
2022/01/24 03:40:35;;;;;;;2.45;2.22;;;;;;;;;;4988674;28;20054;-35
2022/01/24 03:43:00;;;;;;;2.70;1.85;;;;;;;;;;4988495;28;20042;-37
2022/01/24 03:45:42;;;;;;;2.70;2.05;;;;;;;;;;4988846;28;20064;-38
2022/01/24 03:48:11;;;;;;;2.10;1.58;;;;;;;;;;4987443;28;20109;-38
2022/01/24 03:50:37;;;;;;;2.08;1.73;;;;;;;;;;4996579;28;20033;-37
2022/01/24 03:53:04;;;;;;;3.05;2.17;;;;;;;;;;5008264;28;20080;-39
2022/01/24 03:55:30;;;;;;;2.20;1.73;;;;;;;;;;5008426;28;20022;-38
2022/01/24 03:57:55;;;;;;;2.15;1.80;;;;;;;;;;5008318;28;20045;-32
2022/01/24 04:00:21;;;;;;;2.25;1.73;;;;;;;;;;5008138;28;20781;-38
2022/01/24 04:02:47;;;;;;;2.53;2.00;;;;;;;;;;5008110;28;20056;-39
2022/01/24 04:05:12;;;;;;;3.15;1.98;;;;;;;;;;5008197;28;20108;-40
2022/01/24 04:07:38;;;;;;;2.42;1.80;;;;;;;;;;5007775;28;20483;-34
2022/01/24 04:10:07;;;;;;;2.58;1.88;;;;;;;;;;5008255;28;20060;-36
2022/01/24 04:12:36;;;;;;;2.63;1.95;;;;;;;;;;5007791;28;20029;-39
2022/01/24 04:17:40;;;;;;;2.47;2.00;;;;;;;;;;5008141;28;20049;-39
2022/01/24 04:22:52;;;;;;;2.28;1.90;;;;;;;;;;5007739;28;20110;-35
2022/01/24 04:25:22;;;;;;;2.53;2.13;;;;;;;;;;5007506;28;20064;-34
2022/01/24 04:27:48;;;;;;;2.53;1.90;;;;;;;;;;5007680;28;20131;-39
2022/01/24 04:30:14;;;;;;;2.55;2.30;;;;;;;;;;5007659;28;20030;-33
2022/01/24 04:32:40;;;;;;;2.28;1.73;;;;;;;;;;5007497;28;20367;-39
2022/01/24 04:35:05;;;;;;;3.47;2.53;;;;;;;;;;5007241;28;20055;-36
2022/01/24 04:37:31;;;;;;;2.40;1.92;;;;;;;;;;5007553;28;20034;-36
2022/01/24 04:39:56;;;;;;;2.45;2.05;;;;;;;;;;5007388;28;20037;-36
2022/01/24 04:42:31;;;;;;;2.78;2.20;;;;;;;;;;5007424;28;20029;-36
2022/01/24 04:45:22;;;;;;;3.42;2.45;;;;;;;;;;5007770;28;20459;-36
2022/01/24 04:53:48;;;;;;;2.75;2.20;;;;;;;;;;5007086;28;20026;-39
2022/01/24 04:55:54;;;;;;;2.78;2.00;;;;;;;;;;5006767;28;20120;-38
2022/01/24 04:58:19;;;;;;;2.92;2.30;;;;;;;;;;5006917;28;20103;-39
2022/01/24 05:00:44;;;;;;;2.78;2.17;;;;;;;;;;5007037;28;20037;-34
2022/01/24 05:03:10;;;;;;;2.97;2.13;;;;;;;;;;5006704;28;20026;-37
2022/01/24 05:05:35;;;;;;;3.60;2.53;;;;;;;;;;5006871;28;20049;-35
2022/01/24 05:08:04;;;;;;;2.15;1.90;;;;;;;;;;5006221;28;20106;-38
2022/01/24 05:10:37;;;;;;;2.78;2.20;;;;;;;;;;4995105;28;20872;-34
2022/01/24 05:24:18;;;;;;;;;;;;;;;;;;5024045;28;20033;-34
2022/01/24 05:26:44;;;;;;;2.83;2.20;;;;;;;;;;5023155;28;20292;-40
2022/01/24 05:29:09;;;;;;;2.47;2.10;;;;;;;;;;5015814;28;20056;-34
2022/01/24 05:31:35;;;;;;;5.25;3.45;;;;;;;;;;5006375;28;20083;-36
2022/01/24 05:34:00;;;;;;;12.63;3.63;;;;;;;;;;5006546;28;20095;-33
2022/01/24 05:36:26;;;;;;;6.22;3.30;;;;;;;;;;4998880;28;20029;-40
2022/01/24 05:38:51;;;;;;;5.63;3.42;;;;;;;;;;5002925;28;20025;-38
2022/01/24 05:41:17;;;;;;;9.63;4.10;;;;;;;;;;5007034;28;20746;-38
2022/01/24 05:43:43;;;;;;;7.65;3.47;;;;;;;;;;5015062;28;20419;-32
2022/01/24 05:46:09;;;;;;;8.82;3.67;;;;;;;;;;5023665;28;20053;-37
2022/01/24 05:48:34;;;;;;;8.52;3.63;;;;;;;;;;5023525;28;20033;-37
2022/01/24 05:51:00;;;;;;;9.68;3.60;;;;;;;;;;4994580;28;20034;-34
2022/01/24 05:53:25;;;;;;;11.38;3.10;;;;;;;;;;4984319;28;20420;-36
2022/01/24 05:55:51;;;;;;;19.38;3.88;;;;;;;;;;4984195;28;20052;-34
2022/01/24 05:58:16;;;;;;;18.65;3.88;;;;;;;;;;4983996;28;20057;-33
2022/01/24 06:00:42;;;;;;;12.00;4.13;;;;;;;;;;4984151;28;20857;-38
2022/01/24 06:03:07;;;;;;;15.32;8.48;;;;;;;;;;5013674;28;20041;-34
2022/01/24 06:05:33;;;;;;;13.23;8.52;;;;;;;;;;5014692;28;20046;-32
2022/01/24 06:07:58;;;;;;;12.70;7.90;;;;;;;;;;5000174;28;20018;-36
2022/01/24 06:10:24;;;;;;;10.70;6.70;;;;;;;;;;5007081;28;20029;-36
2022/01/24 06:12:49;;;;;;;14.05;7.25;;;;;;;;;;5008644;28;20083;-36
2022/01/24 06:15:15;;;;;;;12.35;7.32;;;;;;;;;;5022397;28;20036;-36
2022/01/24 06:17:41;;;;;;;12.80;6.30;;;;;;;;;;4999829;28;20859;-37
2022/01/24 06:20:06;;;;;;;13.48;7.10;;;;;;;;;;4987605;28;20061;-35
2022/01/24 06:22:32;;;;;;;14.05;7.90;;;;;;;;;;5002268;28;20037;-35
2022/01/24 06:24:58;;;;;;;11.73;6.85;;;;;;;;;;5002953;28;20029;-34
2022/01/24 06:27:23;;;;;;;10.88;6.53;;;;;;;;;;4995386;28;20034;-36
2022/01/24 06:29:49;;;;;;;11.52;6.70;;;;;;;;;;5002449;28;20649;-35
2022/01/24 06:32:14;;;;;;;11.20;6.22;;;;;;;;;;4999086;28;20405;-38
2022/01/24 06:34:40;;;;;;;16.63;6.57;;;;;;;;;;5000639;28;20478;-38
2022/01/24 06:37:05;;;;;;;10.40;6.20;;;;;;;;;;5000115;28;20534;-35
2022/01/24 06:39:31;;;;;;;11.73;6.50;;;;;;;;;;5001757;28;20864;-32
2022/01/24 06:44:31;;;;;;;17.52;6.25;;;;;;;;;;4999227;28;20050;-39
2022/01/24 06:46:57;;;;;;;15.25;6.18;;;;;;;;;;5003274;28;20022;-39
2022/01/24 06:49:22;;;;;;;9.73;6.07;;;;;;;;;;4999835;28;20103;-34
2022/01/24 06:51:48;;;;;;;12.90;6.32;;;;;;;;;;4997033;28;20076;-39
2022/01/24 06:54:13;;;;;;;15.80;5.80;;;;;;;;;;5003407;28;20026;-36
2022/01/24 06:56:39;;;;;;;12.02;5.90;;;;;;;;;;5002623;28;20034;-36
2022/01/24 06:59:05;;;;;;;8.50;5.53;;;;;;;;;;5002783;28;20049;-38
2022/01/24 07:01:30;;;;;;;13.32;6.03;;;;;;;;;;4992477;28;20042;-32
2022/01/24 07:03:56;;;;;;;11.13;6.25;;;;;;;;;;5002841;28;20523;-37
2022/01/24 07:06:21;;;;;;;18.15;5.88;;;;;;;;;;5005044;28;20044;-38
2022/01/24 07:08:47;;;;;;;10.93;6.32;;;;;;;;;;5000995;28;20040;-36
2022/01/24 07:11:15;;;;;;;11.60;6.00;;;;;;;;;;5005587;28;20026;-35
2022/01/24 07:13:41;;;;;;;12.13;5.95;;;;;;;;;;5016782;28;20056;-33
2022/01/24 07:16:07;;;;;;;10.48;5.38;;;;;;;;;;5019478;28;20037;-37
2022/01/24 07:21:00;;;;;;;10.18;5.55;;;;;;;;;;5027423;28;20021;-33
2022/01/24 07:23:26;;;;;;;9.10;5.50;;;;;;;;;;5026926;28;20120;-36
2022/01/24 07:25:51;;;;;;;7.28;5.55;;;;;;;;;;5027432;28;20108;-38
2022/01/24 07:28:17;;;;;;;7.47;5.28;;;;;;;;;;5027873;28;20450;-37
2022/01/24 07:30:43;;;;;;;10.52;5.13;;;;;;;;;;5027518;28;20031;-36
2022/01/24 07:33:09;;;;;;;9.20;5.50;;;;;;;;;;5027135;28;20395;-37
2022/01/24 07:35:34;;;;;;;8.38;5.05;;;;;;;;;;5027594;28;20024;-38
2022/01/24 07:38:00;;;;;;;9.88;5.50;;;;;;;;;;5027181;28;20021;-36
2022/01/24 07:40:25;;;;;;;14.43;4.97;;;;;;;;;;5026439;28;20107;-38
2022/01/24 07:45:35;;;;;;;6.75;4.60;;;;;;;;;;5025140;28;20040;-38
2022/01/24 07:48:01;;;;;;;7.05;4.45;;;;;;;;;;5026783;28;20033;-37
2022/01/24 07:50:27;;;;;;;8.77;5.00;;;;;;;;;;5000122;28;20428;-31
2022/01/24 07:52:52;;;;;;;7.63;4.88;;;;;;;;;;4988476;28;20200;-37
2022/01/24 07:55:18;;;;;;;7.07;5.00;;;;;;;;;;4988263;28;20089;-34
2022/01/24 07:57:43;;;;;;;9.77;4.60;;;;;;;;;;4988040;28;20026;-37
2022/01/24 08:00:10;;;;;;;7.15;4.95;;;;;;;;;;4987986;28;20030;-40
2022/01/24 08:02:36;;;;;;;8.60;4.70;;;;;;;;;;4987855;28;20026;-36
2022/01/24 08:05:02;;;;;;;8.35;5.00;;;;;;;;;;4987863;28;20504;-35
2022/01/24 08:07:28;;;;;;;7.85;4.80;;;;;;;;;;4988247;28;20107;-38
2022/01/24 08:09:53;;;;;;;6.10;4.47;;;;;;;;;;4988448;28;20508;-39
2022/01/24 08:12:19;;;;;;;6.80;4.90;;;;;;;;;;4988309;28;20038;-35
2022/01/24 08:14:44;;;;;;;8.40;4.30;;;;;;;;;;4988339;28;20579;-39
2022/01/24 08:17:10;;;;;;;7.47;4.63;;;;;;;;;;4987830;28;20018;-35
2022/01/24 08:19:35;;;;;;;6.22;4.30;;;;;;;;;;4987761;28;20062;-33
2022/01/24 08:22:01;;;;;;;5.57;4.20;;;;;;;;;;4986711;28;20026;-34
2022/01/24 08:24:27;;;;;;;7.53;3.97;;;;;;;;;;4987603;28;20027;-34
2022/01/24 08:26:53;;;;;;;7.25;4.30;;;;;;;;;;4987756;28;20015;-37
2022/01/24 08:29:18;;;;;;;6.28;4.00;;;;;;;;;;4988175;28;20037;-36
2022/01/24 08:31:44;;;;;;;5.38;4.13;;;;;;;;;;4987537;28;20076;-39
2022/01/24 08:34:09;;;;;;;6.85;4.18;;;;;;;;;;4988133;28;20046;-37
2022/01/24 08:36:35;;;;;;;6.25;4.80;;;;;;;;;;4988166;28;20552;-33
2022/01/24 08:39:06;;;;;;;6.90;4.68;;;;;;;;;;4987748;28;20101;-33
2022/01/24 08:46:59;;;;;;;9.25;7.53;;;;;;;;;;4988239;28;20049;-37
2022/01/24 08:49:25;;;;;;;12.15;7.93;;;;;;;;;;4988377;28;20062;-39
2022/01/24 08:51:50;;;;;;;8.75;7.15;;;;;;;;;;4987510;28;20405;-36
2022/01/24 08:54:16;;;;;;;9.85;7.68;;;;;;;;;;4987996;28;20058;-33
2022/01/24 08:56:42;;;;;;;10.52;7.32;;;;;;;;;;4987602;28;20414;-39
2022/01/24 08:59:07;;;;;;;8.27;7.10;;;;;;;;;;4987524;28;20206;-33
2022/01/24 09:01:33;;;;;;;11.05;7.85;;;;;;;;;;4987312;28;20050;-38
2022/01/24 09:03:58;;;;;;;10.75;7.47;;;;;;;;;;4987543;28;20023;-34
2022/01/24 09:06:24;;;;;;;10.05;7.80;;;;;;;;;;4987662;28;20038;-32
2022/01/24 09:08:56;;;;;;;10.27;7.93;;;;;;;;;;4987329;28;20022;-36
2022/01/24 09:11:29;;;;;;;11.52;7.65;;;;;;;;;;4987370;28;20030;-37
2022/01/24 09:13:55;;;;;;;;;;;;;;;;;;4987893;28;20069;-39
2022/01/24 09:16:20;;;;;;;11.50;8.13;;;;;;;;;;4987383;28;20392;-35
2022/01/24 09:18:46;;;;;;;9.82;7.82;;;;;;;;;;4987164;28;20171;-37
2022/01/24 09:21:11;;;;;;;10.75;7.80;;;;;;;;;;4987061;28;20023;-35
2022/01/24 09:23:37;;;;;;;10.98;8.48;;;;;;;;;;4987158;28;20034;-36
2022/01/24 09:26:03;;;;;;;10.23;7.80;;;;;;;;;;4987170;28;20052;-39
2022/01/24 09:28:28;;;;;;;8.77;7.30;;;;;;;;;;4987000;28;20022;-36
2022/01/24 09:30:54;;;;;;;10.82;8.30;;;;;;;;;;4987116;28;20088;-36
2022/01/24 09:33:20;;;;;;;11.85;8.02;;;;;;;;;;4986548;28;20081;-39
2022/01/24 09:35:45;;;;;;;9.95;7.40;;;;;;;;;;4986802;28;20069;-35
2022/01/24 09:38:11;;;;;;;10.88;8.18;;;;;;;;;;4986826;28;20022;-33
2022/01/24 09:40:37;;;;;;;9.73;7.38;;;;;;;;;;4986527;28;20022;-37
2022/01/24 09:43:02;;;;;;;9.15;6.97;;;;;;;;;;4986812;28;20034;-34
2022/01/24 09:45:28;;;;;;;8.60;7.32;;;;;;;;;;4986395;28;20030;-37
2022/01/24 09:47:53;;;;;;;9.43;7.15;;;;;;;;;;4986513;28;20034;-38
2022/01/24 09:50:19;;;;;;;9.60;7.80;;;;;;;;;;4999883;28;20037;-38
2022/01/24 09:52:46;;;;;;;9.35;7.63;;;;;;;;;;5006000;28;20033;-35
2022/01/24 09:55:12;;;;;;;9.73;7.32;;;;;;;;;;5006206;28;20980;-36
2022/01/24 09:57:37;;;;;;;10.65;7.60;;;;;;;;;;5006312;28;20026;-35
2022/01/24 10:00:05;;;;;;;9.75;7.38;;;;;;;;;;5006511;28;20037;-35
2022/01/24 10:02:30;;;;;;;9.90;7.90;;;;;;;;;;5005921;28;20040;-35
2022/01/24 10:05:19;;;;;;;10.15;7.90;;;;;;;;;;5006103;28;20034;-36
2022/01/24 10:07:58;;;;;;;9.13;7.38;;;;;;;;;;5006329;28;20501;-37
2022/01/24 10:10:30;;;;;;;9.50;8.05;;;;;;;;;;5006030;28;20485;-32
2022/01/24 10:18:07;;;;;;;10.60;7.90;;;;;;;;;;5006012;28;20096;-34
2022/01/24 10:20:37;;;;;;;11.70;7.80;;;;;;;;;;5005753;28;20030;-39
2022/01/24 10:23:16;;;;;;;10.98;7.75;;;;;;;;;;5005756;28;20030;-38
2022/01/24 10:25:59;;;;;;;8.88;7.13;;;;;;;;;;5004266;28;20065;-34
2022/01/24 10:28:34;;;;;;;11.45;7.75;;;;;;;;;;5005562;28;20025;-35
2022/01/24 10:31:06;;;;;;;14.02;8.02;;;;;;;;;;5005548;28;20076;-35
2022/01/24 10:33:31;;;;;;;11.83;8.03;;;;;;;;;;5005450;28;20316;-38
2022/01/24 10:35:57;;;;;;;13.65;9.15;;;;;;;;;;5005191;28;20498;-34
2022/01/24 10:38:42;;;;;;;12.02;8.38;;;;;;;;;;5005495;28;20025;-36
2022/01/24 10:41:20;;;;;;;13.02;8.30;;;;;;;;;;5005155;28;20088;-35
2022/01/24 10:43:46;;;;;;;11.73;7.97;;;;;;;;;;5005423;28;20033;-35
2022/01/24 10:46:12;;;;;;;11.27;8.05;;;;;;;;;;5004683;28;20037;-38
2022/01/24 10:48:43;;;;;;;11.57;8.32;;;;;;;;;;5004519;28;20018;-37
2022/01/24 10:51:19;;;;;;;12.20;8.38;;;;;;;;;;4985579;28;20026;-36
2022/01/24 10:53:47;;;;;;;11.52;7.80;;;;;;;;;;4985291;28;20072;-38
2022/01/24 10:56:38;;;;;;;13.45;8.18;;;;;;;;;;4985681;28;20033;-30
2022/01/24 10:59:06;;;;;;;12.45;8.55;;;;;;;;;;4985881;28;20177;-36
2022/01/24 11:01:32;;;;;;;12.02;8.10;;;;;;;;;;4985532;28;20035;-37
2022/01/24 11:03:59;;;;;;;12.00;7.93;;;;;;;;;;4985800;28;20034;-36
2022/01/24 11:06:26;;;;;;;13.40;8.18;;;;;;;;;;4985817;28;20405;-32
2022/01/24 11:09:21;;;;;;;14.70;9.45;;;;;;;;;;4985518;28;20581;-37
2022/01/24 11:11:59;;;;;;;17.15;8.95;;;;;;;;;;4984596;28;20484;-35
2022/01/24 11:14:25;;;;;;;15.82;9.23;;;;;;;;;;4985433;28;20038;-37
2022/01/24 11:16:51;;;;;;;15.95;9.18;;;;;;;;;;4985657;28;20596;-36
2022/01/24 11:19:37;;;;;;;15.90;9.55;;;;;;;;;;4985280;28;20446;-39
2022/01/24 11:22:07;;;;;;;15.05;9.38;;;;;;;;;;4985542;28;20038;-35
2022/01/24 11:24:44;;;;;;;17.58;10.63;;;;;;;;;;4985217;28;20473;-36
2022/01/24 11:27:09;;;;;;;18.05;10.45;;;;;;;;;;4984311;28;20058;-37
2022/01/24 11:29:36;;;;;;;17.50;10.27;;;;;;;;;;4985362;28;20027;-35
2022/01/24 11:32:07;;;;;;;18.73;10.45;;;;;;;;;;4968363;28;20030;-34
2022/01/24 11:34:39;;;;;;;17.67;10.20;;;;;;;;;;4983670;28;20070;-34
2022/01/24 11:37:05;;;;;;;17.35;9.93;;;;;;;;;;4985016;28;20117;-34
2022/01/24 11:39:31;;;;;;;16.73;10.07;;;;;;;;;;4985420;28;20053;-33
2022/01/24 11:41:57;;;;;;;17.35;10.02;;;;;;;;;;4984986;28;20497;-36
2022/01/24 11:44:23;;;;;;;17.63;9.70;;;;;;;;;;4985184;28;20037;-37
2022/01/24 11:46:52;;;;;;;17.52;9.55;;;;;;;;;;4985067;28;20023;-33
2022/01/24 11:49:28;;;;;;;15.10;9.07;;;;;;;;;;4993413;28;20294;-36
2022/01/24 11:52:04;;;;;;;16.52;9.77;;;;;;;;;;5004815;28;20061;-36
2022/01/24 11:54:47;;;;;;;18.00;9.55;;;;;;;;;;5004806;28;20034;-37
2022/01/24 11:57:23;;;;;;;16.00;9.18;;;;;;;;;;5006743;28;20037;-33
2022/01/24 12:00:05;;;;;;;15.95;8.98;;;;;;;;;;5008029;28;20037;-35
2022/01/24 12:02:45;;;;;;;15.60;9.52;;;;;;;;;;5008182;28;20041;-40
2022/01/24 12:05:14;;;;;;;15.32;9.60;;;;;;;;;;5008004;28;20065;-36
2022/01/24 12:07:42;;;;;;;14.95;8.48;;;;;;;;;;5007947;28;20069;-35
2022/01/24 12:10:36;;;;;;;14.63;8.57;;;;;;;;;;5007972;28;20049;-37
2022/01/24 12:13:13;;;;;;;14.98;8.68;;;;;;;;;;5007700;28;20046;-38
2022/01/24 12:15:39;;;;;;;15.05;9.25;;;;;;;;;;5007908;28;20480;-36
2022/01/24 12:18:17;;;;;;;14.10;8.75;;;;;;;;;;5008142;28;20057;-39
2022/01/24 12:20:47;;;;;;;14.85;8.77;;;;;;;;;;5007738;28;20121;-37
2022/01/24 12:23:25;;;;;;;13.38;8.30;;;;;;;;;;5007338;28;20036;-38
2022/01/24 12:25:54;;;;;;;13.70;8.55;;;;;;;;;;5007865;28;20034;-39
2022/01/24 12:28:24;;;;;;;12.45;7.93;;;;;;;;;;5008085;28;20408;-35
2022/01/24 12:30:56;;;;;;;11.20;7.22;;;;;;;;;;5007584;28;20034;-35
2022/01/24 12:33:54;;;;;;;13.43;8.13;;;;;;;;;;5007496;28;20445;-34
2022/01/24 12:36:47;;;;;;;14.82;9.05;;;;;;;;;;5007446;28;20042;-36
2022/01/24 12:39:33;;;;;;;12.30;8.52;;;;;;;;;;5007682;28;20105;-37
2022/01/24 12:42:19;;;;;;;14.07;7.72;;;;;;;;;;5007428;28;20037;-36
2022/01/24 12:47:17;;;;;;;14.48;8.63;;;;;;;;;;5007398;28;20133;-34
2022/01/24 12:49:44;;;;;;;13.50;8.23;;;;;;;;;;4995541;28;20035;-38
2022/01/24 12:52:11;;;;;;;12.43;7.47;;;;;;;;;;4987935;28;20109;-36
2022/01/24 12:54:49;;;;;;;12.38;7.90;;;;;;;;;;4987710;28;20031;-38
2022/01/24 12:57:16;;;;;;;13.30;7.95;;;;;;;;;;4987973;28;20031;-34
2022/01/24 12:59:54;;;;;;;11.40;7.50;;;;;;;;;;4987679;28;20639;-35
2022/01/24 13:02:31;;;;;;;12.90;7.68;;;;;;;;;;4987838;28;20587;-34
2022/01/24 13:05:05;;;;;;;12.32;7.63;;;;;;;;;;4987687;28;20622;-39
2022/01/24 13:07:31;;;;;;;13.38;8.13;;;;;;;;;;4987261;28;20030;-34
2022/01/24 13:10:07;;;;;;;12.57;7.72;;;;;;;;;;4987258;28;20038;-32
2022/01/24 13:12:33;;;;;;;12.45;8.32;;;;;;;;;;4987475;28;20046;-35
2022/01/24 13:15:03;;;;;;;12.88;8.40;;;;;;;;;;4987359;28;20111;-31
2022/01/24 13:22:56;;;;;;;11.55;7.35;;;;;;;;;;4987014;28;20034;-37
2022/01/24 13:25:30;;;;;;;13.10;7.85;;;;;;;;;;4986935;28;20042;-32
2022/01/24 13:28:07;;;;;;;12.60;8.05;;;;;;;;;;4986933;28;20077;-38
2022/01/24 13:30:38;;;;;;;12.07;7.78;;;;;;;;;;4987235;28;20038;-36
2022/01/24 13:33:05;;;;;;;13.88;6.82;;;;;;;;;;4986944;28;20516;-29
2022/01/24 13:35:32;;;;;;;11.80;7.35;;;;;;;;;;4987141;28;20420;-33
2022/01/24 13:38:00;;;;;;;10.85;7.47;;;;;;;;;;4986940;28;20485;-34
2022/01/24 13:40:40;;;;;;;11.57;7.70;;;;;;;;;;4987079;28;20527;-39
2022/01/24 13:43:06;;;;;;;11.27;7.40;;;;;;;;;;5001073;28;20030;-37
2022/01/24 13:45:36;;;;;;;11.77;7.75;;;;;;;;;;4986836;28;20023;-35
2022/01/24 13:48:03;;;;;;;12.32;8.02;;;;;;;;;;4986669;28;20477;-33
2022/01/24 13:50:28;;;;;;;10.77;7.35;;;;;;;;;;5004395;28;20030;-39
2022/01/24 13:52:54;;;;;;;12.07;7.43;;;;;;;;;;5005957;28;20034;-38
2022/01/24 13:55:20;;;;;;;10.93;7.15;;;;;;;;;;5006034;28;20500;-38
2022/01/24 13:57:47;;;;;;;10.73;7.80;;;;;;;;;;5006180;28;20057;-37
2022/01/24 14:00:15;;;;;;;11.25;7.57;;;;;;;;;;5006175;28;20370;-33
2022/01/24 14:02:41;;;;;;;11.07;7.57;;;;;;;;;;5006066;28;20040;-38
2022/01/24 14:05:07;;;;;;;12.10;7.78;;;;;;;;;;5006172;28;20030;-37
2022/01/24 14:07:34;;;;;;;11.68;7.32;;;;;;;;;;5005908;28;20026;-37
2022/01/24 14:10:05;;;;;;;11.02;7.47;;;;;;;;;;5006308;28;20032;-37
2022/01/24 14:12:38;;;;;;;11.18;7.30;;;;;;;;;;5005860;28;20091;-37
2022/01/24 14:15:10;;;;;;;11.73;7.72;;;;;;;;;;5005531;28;20041;-37
2022/01/24 14:17:43;;;;;;;10.25;7.20;;;;;;;;;;5004698;28;20054;-39
2022/01/24 14:20:10;;;;;;;11.13;7.30;;;;;;;;;;5005894;28;20026;-39
2022/01/24 14:22:39;;;;;;;9.10;6.75;;;;;;;;;;5005673;28;20066;-37
2022/01/24 14:25:05;;;;;;;10.65;7.45;;;;;;;;;;5005788;28;20354;-36
2022/01/24 14:27:55;;;;;;;10.30;7.05;;;;;;;;;;5005445;28;20022;-36
2022/01/24 14:30:34;;;;;;;9.60;6.90;;;;;;;;;;5005042;28;20046;-34
2022/01/24 14:33:04;;;;;;;9.60;6.82;;;;;;;;;;5005141;28;20046;-32
2022/01/24 14:35:34;;;;;;;9.98;6.95;;;;;;;;;;5005628;28;20080;-32
2022/01/24 14:37:59;;;;;;;8.98;6.00;;;;;;;;;;5005672;28;20033;-36
2022/01/24 14:40:35;;;;;;;9.23;6.65;;;;;;;;;;5005486;28;20030;-37
2022/01/24 14:45:45;;;;;;;9.60;7.05;;;;;;;;;;5005511;28;20129;-37
2022/01/24 14:48:12;;;;;;;8.98;6.10;;;;;;;;;;5003985;28;20683;-35
2022/01/24 14:50:38;;;;;;;8.80;6.45;;;;;;;;;;5005484;28;20571;-37
2022/01/24 14:53:06;;;;;;;8.60;6.40;;;;;;;;;;5005251;28;20036;-36
2022/01/24 14:55:32;;;;;;;10.18;6.57;;;;;;;;;;5005516;28;20021;-36
2022/01/24 14:57:57;;;;;;;9.40;6.40;;;;;;;;;;5004927;28;20101;-36
2022/01/24 15:00:24;;;;;;;7.80;5.50;;;;;;;;;;5005387;28;20036;-36
2022/01/24 15:02:50;;;;;;;8.10;5.82;;;;;;;;;;5005172;28;20064;-34
2022/01/24 15:05:19;;;;;;;7.97;6.47;;;;;;;;;;5004929;28;20056;-36
2022/01/24 15:07:44;;;;;;;9.00;6.47;;;;;;;;;;5005228;28;20477;-33
2022/01/24 15:10:10;;;;;;;8.60;6.70;;;;;;;;;;5004948;28;20092;-36
2022/01/24 15:12:45;;;;;;;8.10;6.57;;;;;;;;;;5004918;28;20030;-37
2022/01/24 15:15:14;;;;;;;8.73;6.25;;;;;;;;;;5004998;28;20473;-36
2022/01/24 15:25:37;;;;;;;8.10;5.82;;;;;;;;;;5005207;28;20045;-38
2022/01/24 15:28:03;;;;;;;9.18;6.60;;;;;;;;;;5003689;28;20026;-37
2022/01/24 15:30:29;;;;;;;7.25;5.80;;;;;;;;;;5005013;28;20068;-37
2022/01/24 15:32:54;;;;;;;7.88;5.90;;;;;;;;;;5007704;28;20022;-34
2022/01/24 15:35:20;;;;;;;8.15;5.68;;;;;;;;;;5008839;28;20037;-39
2022/01/24 15:37:47;;;;;;;7.45;5.50;;;;;;;;;;5008580;28;20541;-33
2022/01/24 15:40:13;;;;;;;8.32;5.78;;;;;;;;;;5008761;28;20057;-39
2022/01/24 15:47:44;;;;;;;17.40;7.30;;;;;;;;;;5010749;28;20033;-36
2022/01/24 15:50:18;;;;;;;12.60;6.85;;;;;;;;;;5015625;28;20041;-36
2022/01/24 15:52:43;;;;;;;16.63;6.43;;;;;;;;;;5003993;28;20030;-35
2022/01/24 15:55:12;;;;;;;9.60;6.38;;;;;;;;;;5005959;28;20026;-30
2022/01/24 15:57:44;;;;;;;11.48;6.13;;;;;;;;;;5006011;28;20108;-33
2022/01/24 16:00:12;;;;;;;13.57;6.68;;;;;;;;;;5005761;28;20022;-34
2022/01/24 16:02:42;;;;;;;8.90;6.40;;;;;;;;;;5002003;28;20490;-37
2022/01/24 16:05:09;;;;;;;9.60;6.00;;;;;;;;;;4994495;28;20535;-35
2022/01/24 16:07:38;;;;;;;23.92;6.65;;;;;;;;;;4999646;28;20037;-32
2022/01/24 16:10:04;;;;;;;9.80;6.13;;;;;;;;;;5004154;28;20025;-36
2022/01/24 16:12:29;;;;;;;8.65;5.55;;;;;;;;;;5005043;28;20026;-36
2022/01/24 16:14:55;;;;;;;7.55;5.50;;;;;;;;;;5004877;28;20037;-36
2022/01/24 16:17:20;;;;;;;8.02;5.57;;;;;;;;;;4986396;28;20656;-35
2022/01/24 16:19:52;;;;;;;9.52;6.30;;;;;;;;;;4997855;28;20030;-39
2022/01/24 16:22:32;;;;;;;10.63;6.18;;;;;;;;;;5001480;28;20120;-32
2022/01/24 16:27:42;;;;;;;12.88;6.55;;;;;;;;;;5003835;28;20479;-33
2022/01/24 16:30:08;;;;;;;10.05;6.13;;;;;;;;;;5001992;28;20037;-35
2022/01/24 16:32:35;;;;;;;8.98;6.40;;;;;;;;;;4990587;28;20113;-36
2022/01/24 16:35:03;;;;;;;9.70;6.18;;;;;;;;;;5004057;28;20123;-30
2022/01/24 16:37:34;;;;;;;11.18;6.65;;;;;;;;;;4997777;28;20064;-40
2022/01/24 16:39:59;;;;;;;9.10;6.53;;;;;;;;;;5001204;28;20192;-31
2022/01/24 16:42:25;;;;;;;12.35;6.38;;;;;;;;;;5002878;28;20030;-37
2022/01/24 16:45:13;;;;;;;9.02;6.40;;;;;;;;;;5003958;28;20037;-32
2022/01/24 16:47:38;;;;;;;11.90;6.50;;;;;;;;;;5003341;28;20026;-37
2022/01/24 16:50:04;;;;;;;10.02;6.88;;;;;;;;;;5002381;28;20051;-35
2022/01/24 16:52:32;;;;;;;10.80;7.43;;;;;;;;;;4990984;28;20030;-30
2022/01/24 16:54:57;;;;;;;17.88;8.65;;;;;;;;;;4992457;28;20553;-34
2022/01/24 16:57:23;;;;;;;23.17;11.52;;;;;;;;;;5002224;28;20034;-30
2022/01/24 16:59:49;;;;;;;32.58;16.63;;;;;;;;;;5003560;28;20579;-33
2022/01/24 17:02:15;;;;;;;41.08;17.58;;;;;;;;;;4990967;28;20037;-30